Terminal Aerodrome Forecast
Issued by NWS

Home | Current Version | Previous Version | Text Only | Print | Product List | Glossary On
Versions: 1 2 3 4 5 6 7 8 9 10 11 12 13 14 15 16 17
000
FTUS44 KJAN 101700
TAFHKS
TAF
KHKS 101720Z 1018/1118 28005KT P6SM VCTS SCT040CB BKN250
     FM110200 00000KT 6SM BR BKN100
     FM111000 00000KT 4SM BR BKN250
     FM111300 33004KT P6SM SCT250=

USA.gov is the U.S. government's official web portal to all federal, state and local government web resources and services.